Time;durP1;ratioP1;P1;durP2;ratioP2;P2;SDS_P1;SDS_P2;PMS_P1;PMS_P2;Temp;Humidity;BMP_temperature;BMP_pressure;BME280_temperature;BME280_humidity;BME280_pressure;Samples;Min_cycle;Max_cycle;Signal;HPM_P1;HPM_P2
2021/06/10 04:17:58;;;;;;;77.78;15.20;;;;;;;13.44;100.00;99245.03;4895599;29;20112;-72
2021/06/10 04:20:24;;;;;;;14.43;12.90;;;;;;;13.62;100.00;99244.59;4897227;29;20036;-72
2021/06/10 04:22:49;;;;;;;16.55;12.65;;;;;;;13.78;100.00;99249.44;4897136;29;20025;-72
2021/06/10 04:25:14;;;;;;;32.85;13.27;;;;;;;13.75;100.00;99249.53;4897043;29;20035;-72
2021/06/10 04:30:11;;;;;;;12.60;11.30;;;;;;;14.15;100.00;99247.66;5010984;23;20054;-75
2021/06/10 04:32:36;;;;;;;18.92;11.07;;;;;;;14.06;100.00;99255.72;4971804;28;20035;-75
2021/06/10 04:35:04;;;;;;;14.63;12.18;;;;;;;14.22;100.00;99247.53;4973323;28;20031;-75
2021/06/10 04:37:30;;;;;;;11.40;10.40;;;;;;;14.52;100.00;99249.38;4973063;28;20030;-75
2021/06/10 04:39:55;;;;;;;15.30;10.70;;;;;;;14.44;99.35;99251.28;4973134;28;20030;-75
2021/06/10 04:42:21;;;;;;;12.85;9.68;;;;;;;14.57;99.26;99247.50;4973157;28;20468;-75
2021/06/10 04:44:46;;;;;;;14.18;10.82;;;;;;;14.48;98.95;99241.69;4973329;28;20037;-75
2021/06/10 04:47:12;;;;;;;12.20;10.95;;;;;;;14.50;99.61;99255.53;4972920;28;20364;-75
2021/06/10 04:49:38;;;;;;;29.90;12.02;;;;;;;14.38;100.00;99251.47;4971740;28;20049;-75
2021/06/10 04:52:04;;;;;;;22.15;12.07;;;;;;;14.46;99.67;99252.13;4972702;28;20391;-75
2021/06/10 04:54:30;;;;;;;16.67;12.15;;;;;;;14.42;100.00;99252.25;4972950;28;20019;-75
2021/06/10 04:56:55;;;;;;;14.70;11.85;;;;;;;14.55;100.00;99259.75;4972867;28;20034;-75
2021/06/10 04:59:21;;;;;;;16.92;12.80;;;;;;;14.63;100.00;99251.69;4972953;28;20026;-72
2021/06/10 05:01:46;;;;;;;18.63;12.90;;;;;;;14.61;100.00;99256.97;4972980;28;20570;-74
2021/06/10 05:04:11;;;;;;;17.40;13.75;;;;;;;14.70;100.00;99252.38;4973033;28;20034;-75
2021/06/10 05:06:37;;;;;;;15.90;13.68;;;;;;;14.70;100.00;99257.59;4972732;28;20452;-74
2021/06/10 05:09:03;;;;;;;24.77;14.20;;;;;;;14.64;100.00;99256.84;4972908;28;20027;-75
2021/06/10 05:11:28;;;;;;;15.93;13.10;;;;;;;14.76;100.00;99257.44;4972773;28;20408;-71
2021/06/10 05:13:53;;;;;;;28.65;14.27;;;;;;;14.72;100.00;99256.66;4973627;28;20030;-71
2021/06/10 05:16:19;;;;;;;20.42;15.63;;;;;;;14.63;100.00;99257.75;4975094;28;20027;-75
2021/06/10 05:18:44;;;;;;;25.55;14.20;;;;;;;14.76;100.00;99247.88;4976593;28;20038;-74
2021/06/10 05:21:10;;;;;;;25.98;14.52;;;;;;;14.88;98.93;99249.28;4976528;28;20023;-74
2021/06/10 05:23:38;;;;;;;16.80;14.43;;;;;;;15.06;98.82;99248.75;4976505;28;20023;-75
2021/06/10 05:26:03;;;;;;;19.75;14.90;;;;;;;15.21;98.18;99251.81;4976446;28;20030;-75
2021/06/10 05:28:34;;;;;;;21.20;14.38;;;;;;;15.23;97.17;99248.28;4976029;28;20030;-74
2021/06/10 05:31:00;;;;;;;15.48;13.85;;;;;;;14.99;98.84;99249.84;4976549;28;20034;-75
2021/06/10 05:33:25;;;;;;;18.85;14.15;;;;;;;15.26;98.52;99249.94;4976173;28;20027;-74
2021/06/10 05:35:51;;;;;;;17.50;13.63;;;;;;;15.42;96.72;99245.97;4976385;28;20038;-75
2021/06/10 05:38:16;;;;;;;17.60;13.25;;;;;;;15.54;96.38;99248.22;4976085;28;20027;-73
2021/06/10 05:40:41;;;;;;;26.33;14.93;;;;;;;15.30;96.43;99248.94;4976198;28;20472;-72
2021/06/10 05:43:08;;;;;;;15.35;13.75;;;;;;;15.41;97.64;99250.31;4976446;28;20110;-72
2021/06/10 05:45:33;;;;;;;15.23;13.65;;;;;;;15.40;96.39;99253.00;4976098;28;20038;-72
2021/06/10 05:47:59;;;;;;;15.00;13.38;;;;;;;15.97;93.33;99259.13;4975838;28;20026;-72
2021/06/10 05:50:24;;;;;;;13.52;12.15;;;;;;;16.09;94.02;99261.31;4974690;28;20023;-73
2021/06/10 05:52:50;;;;;;;15.27;12.70;;;;;;;16.49;90.31;99260.84;4975847;28;20031;-74
2021/06/10 05:55:15;;;;;;;15.05;12.95;;;;;;;16.68;90.21;99256.69;4975983;28;20106;-75
2021/06/10 05:57:40;;;;;;;15.40;12.32;;;;;;;16.81;89.42;99258.91;4974438;28;20034;-73
2021/06/10 06:00:07;;;;;;;12.73;11.43;;;;;;;16.98;87.55;99263.53;4976113;28;20098;-72
2021/06/10 06:02:33;;;;;;;13.50;12.30;;;;;;;16.66;89.83;99268.09;4975782;28;20267;-75
2021/06/10 06:04:58;;;;;;;13.27;11.80;;;;;;;16.75;90.02;99261.75;4963670;28;20034;-73
2021/06/10 06:07:23;;;;;;;13.25;11.82;;;;;;;16.70;89.94;99265.34;4966120;28;20110;-75
2021/06/10 06:09:49;;;;;;;12.82;11.52;;;;;;;17.02;89.19;99266.00;4972253;28;20114;-72
2021/06/10 06:12:15;;;;;;;11.98;10.82;;;;;;;17.18;87.48;99263.66;4975342;28;20019;-72
2021/06/10 06:14:43;;;;;;;13.80;11.13;;;;;;;17.30;87.81;99268.41;4974056;28;20053;-73
2021/06/10 06:17:12;;;;;;;16.90;12.60;;;;;;;17.14;87.15;99273.38;4974593;28;20027;-73
2021/06/10 06:19:37;;;;;;;12.07;10.90;;;;;;;17.26;87.65;99268.59;4975177;28;20031;-73
2021/06/10 06:22:04;;;;;;;11.82;10.73;;;;;;;17.42;87.89;99265.34;4975254;28;20023;-73
2021/06/10 06:24:31;;;;;;;12.20;10.70;;;;;;;17.43;86.69;99268.81;4975009;28;20025;-72
2021/06/10 06:26:57;;;;;;;12.90;10.65;;;;;;;17.42;89.18;99274.97;4974624;28;20033;-72
2021/06/10 06:29:22;;;;;;;11.95;10.60;;;;;;;17.11;87.69;99278.72;4974125;28;20058;-73
2021/06/10 06:31:48;;;;;;;11.10;10.07;;;;;;;17.70;86.02;99270.41;4974016;28;20035;-74
2021/06/10 06:34:13;;;;;;;10.63;9.50;;;;;;;18.02;84.40;99276.13;4975224;28;20015;-72
2021/06/10 06:36:38;;;;;;;10.57;9.60;;;;;;;17.99;83.62;99281.53;4973654;28;20026;-72
2021/06/10 06:39:05;;;;;;;11.38;9.77;;;;;;;18.13;84.07;99268.72;4964729;28;20397;-76
2021/06/10 06:41:31;;;;;;;10.80;9.70;;;;;;;17.98;85.29;99271.94;4955879;28;20027;-74
2021/06/10 06:43:56;;;;;;;11.55;10.07;;;;;;;17.98;84.90;99279.78;4968606;28;20085;-76
2021/06/10 06:46:22;;;;;;;11.02;9.90;;;;;;;18.36;83.27;99274.75;4954369;29;20174;-75
2021/06/10 06:48:47;;;;;;;10.90;9.80;;;;;;;18.47;82.07;99277.81;4955534;28;20478;-75
2021/06/10 06:51:12;;;;;;;13.35;10.50;;;;;;;18.78;79.35;99287.03;4953543;29;20500;-75
2021/06/10 06:53:38;;;;;;;9.70;8.70;;;;;;;19.60;76.84;99278.06;4955512;28;20036;-74
2021/06/10 06:56:04;;;;;;;9.00;8.10;;;;;;;20.27;73.34;99287.97;4955433;28;20031;-73
2021/06/10 06:58:30;;;;;;;10.27;8.32;;;;;;;21.57;69.37;99280.41;4955245;28;20023;-74
2021/06/10 07:00:57;;;;;;;10.85;7.18;;;;;;;23.74;62.20;99278.13;4955404;28;20063;-73
2021/06/10 07:03:23;;;;;;;8.65;7.47;;;;;;;24.04;61.81;99271.78;4967008;28;20514;-73
2021/06/10 07:05:49;;;;;;;8.45;7.55;;;;;;;23.11;62.87;99282.94;4974612;28;20058;-75
2021/06/10 07:08:15;;;;;;;9.40;7.88;;;;;;;23.98;60.22;99286.28;4973088;28;20041;-73
2021/06/10 07:10:40;;;;;;;8.85;6.72;;;;;;;25.02;57.62;99279.28;4974619;28;20019;-73
2021/06/10 07:13:06;;;;;;;8.77;7.45;;;;;;;23.75;59.41;99285.09;4974132;28;20034;-76
2021/06/10 07:15:32;;;;;;;8.38;7.57;;;;;;;24.63;57.87;99282.88;4973043;28;20026;-74
2021/06/10 07:17:57;;;;;;;6.82;6.22;;;;;;;26.74;51.78;99278.31;4956975;28;20106;-74
2021/06/10 07:20:23;;;;;;;7.90;6.68;;;;;;;27.47;49.60;99276.22;4974441;28;20014;-74
2021/06/10 07:22:49;;;;;;;7.70;7.00;;;;;;;27.33;49.34;99275.50;4973067;28;20488;-74
2021/06/10 07:25:14;;;;;;;7.57;6.60;;;;;;;28.20;46.63;99278.25;4973833;28;20027;-75
2021/06/10 07:27:40;;;;;;;7.85;7.07;;;;;;;26.49;50.24;99278.47;4972256;28;20101;-73
2021/06/10 07:30:08;;;;;;;7.65;5.63;;;;;;;27.81;47.98;99279.72;4969749;28;20034;-75
2021/06/10 07:32:34;;;;;;;7.45;6.50;;;;;;;26.91;49.02;99279.66;4960614;28;20027;-74
2021/06/10 07:34:59;;;;;;;6.47;5.93;;;;;;;28.93;45.62;99280.06;4973839;28;20109;-76
2021/06/10 07:37:24;;;;;;;6.63;5.32;;;;;;;29.98;43.08;99282.47;4971074;28;20027;-76
2021/06/10 07:39:50;;;;;;;6.60;5.50;;;;;;;27.51;47.21;99288.28;4973504;28;20479;-75
2021/06/10 07:42:15;;;;;;;5.85;5.35;;;;;;;27.45;49.24;99278.16;4973750;28;20070;-75
2021/06/10 07:44:40;;;;;;;16.92;9.23;;;;;;;28.00;47.83;99290.56;4972661;28;20027;-76
2021/06/10 07:47:06;;;;;;;7.65;5.70;;;;;;;30.40;41.90;99288.41;4973608;28;20026;-76
2021/06/10 07:49:33;;;;;;;10.45;6.10;;;;;;;29.38;43.86;99289.56;4972690;28;20023;-74
2021/06/10 07:51:59;;;;;;;5.97;5.38;;;;;;;28.71;45.66;99300.69;4973606;28;20042;-73
2021/06/10 07:54:24;;;;;;;6.30;4.68;;;;;;;29.89;43.77;99289.50;4973634;28;20042;-76
2021/06/10 07:56:49;;;;;;;5.13;4.30;;;;;;;31.02;40.32;99280.88;4973372;28;20085;-73
2021/06/10 07:59:18;;;;;;;6.30;4.30;;;;;;;31.65;38.31;99285.59;4973471;28;20031;-72
2021/06/10 08:01:43;;;;;;;4.90;4.50;;;;;;;30.35;39.13;99282.66;4972597;28;20019;-74
2021/06/10 08:04:08;;;;;;;5.97;4.15;;;;;;;31.29;36.65;99272.09;4973324;28;20030;-71
2021/06/10 08:06:34;;;;;;;4.15;3.75;;;;;;;32.07;36.00;99274.34;4976164;28;20501;-74
2021/06/10 08:08:59;;;;;;;4.15;3.85;;;;;;;33.06;35.06;99276.84;4953991;28;20029;-74
2021/06/10 08:11:24;;;;;;;6.00;4.00;;;;;;;34.05;32.44;99277.13;4953773;28;20029;-74
2021/06/10 08:13:50;;;;;;;4.93;4.25;;;;;;;33.22;33.08;99276.97;4953229;28;20051;-74
2021/06/10 08:16:16;;;;;;;7.28;4.00;;;;;;;32.30;35.43;99277.41;4953933;28;20051;-77
2021/06/10 08:18:42;;;;;;;6.10;4.30;;;;;;;32.74;35.09;99271.09;4924970;29;20080;-77
2021/06/10 08:21:07;;;;;;;4.80;4.30;;;;;;;31.40;37.02;99266.53;4952892;29;20111;-77
2021/06/10 08:23:32;;;;;;;5.72;4.88;;;;;;;32.84;33.69;99268.31;4953157;28;20074;-74
2021/06/10 08:26:00;;;;;;;6.82;4.95;;;;;;;31.81;35.53;99264.31;4951973;29;20046;-74
2021/06/10 08:28:27;;;;;;;6.78;5.53;;;;;;;32.14;35.70;99272.72;4953477;28;20023;-74
2021/06/10 08:30:53;;;;;;;10.18;5.05;;;;;;;31.74;36.06;99268.59;4960242;28;20031;-74
2021/06/10 08:33:18;;;;;;;6.18;5.53;;;;;;;33.17;33.47;99264.00;4964974;28;20039;-76
2021/06/10 08:35:44;;;;;;;5.75;4.57;;;;;;;32.84;33.31;99265.63;4956725;28;20433;-73
2021/06/10 08:38:10;;;;;;;6.07;5.30;;;;;;;28.51;42.17;99268.56;4971914;28;20468;-71
2021/06/10 08:40:37;;;;;;;6.80;4.68;;;;;;;32.67;34.82;99263.81;4973013;28;20101;-72
2021/06/10 08:43:05;;;;;;;5.60;4.32;;;;;;;33.31;32.93;99264.38;4972947;28;20027;-72
2021/06/10 08:45:32;;;;;;;4.20;3.90;;;;;;;32.36;35.50;99258.03;4972756;28;20030;-72
2021/06/10 08:47:58;;;;;;;6.40;4.93;;;;;;;33.05;34.48;99259.91;4972397;28;20031;-72
2021/06/10 08:50:27;;;;;;;5.00;4.50;;;;;;;33.14;33.86;99252.72;4977043;28;20027;-72
2021/06/10 08:52:56;;;;;;;5.10;4.60;;;;;;;34.16;32.81;99251.75;4976771;28;20545;-72
2021/06/10 08:55:24;;;;;;;5.55;5.05;;;;;;;33.59;33.43;99262.34;4976879;28;20384;-71
2021/06/10 08:57:49;;;;;;;6.40;5.07;;;;;;;33.29;33.67;99261.88;4976227;28;20031;-72
2021/06/10 09:00:15;;;;;;;6.05;5.18;;;;;;;32.99;33.75;99261.38;4975988;28;20015;-72
2021/06/10 09:02:49;;;;;;;5.45;4.95;;;;;;;32.70;33.87;99260.81;4969820;28;20012;-74
2021/06/10 09:05:17;;;;;;;5.35;4.85;;;;;;;32.06;34.98;99252.06;4957365;28;20023;-74
2021/06/10 09:07:46;;;;;;;7.13;5.35;;;;;;;32.66;34.67;99249.56;4957254;28;20448;-74
2021/06/10 09:10:12;;;;;;;;;;;;;;;32.02;34.60;99256.03;4956994;28;20019;-73
2021/06/10 09:12:51;;;;;;;9.73;5.95;;;;;;;32.26;34.41;99258.09;4962075;28;19921;-73
2021/06/10 09:15:18;;;;;;;5.38;4.88;;;;;;;32.48;33.21;99251.44;4976598;28;20033;-73
2021/06/10 09:17:44;;;;;;;5.22;4.75;;;;;;;31.90;34.47;99244.69;4976198;28;20023;-73
2021/06/10 09:20:31;;;;;;;5.30;4.50;;;;;;;33.05;33.76;99253.69;4976211;28;20029;-73
2021/06/10 09:23:27;;;;;;;7.07;4.65;;;;;;;33.39;33.41;99251.00;4975379;28;20106;-73
2021/06/10 09:26:01;;;;;;;6.40;4.68;;;;;;;33.29;33.43;99253.81;4976138;28;20018;-73
2021/06/10 09:28:34;;;;;;;5.15;4.43;;;;;;;33.24;32.66;99259.66;4974674;28;20093;-73
2021/06/10 09:30:59;;;;;;;5.60;5.10;;;;;;;33.59;32.08;99251.59;4976526;28;20050;-73
2021/06/10 09:33:26;;;;;;;4.60;4.20;;;;;;;32.75;34.55;99253.16;4975617;28;20142;-73
2021/06/10 09:35:56;;;;;;;4.75;4.35;;;;;;;33.32;33.27;99250.81;4975469;28;20114;-74
2021/06/10 09:38:21;;;;;;;4.78;4.30;;;;;;;33.78;33.33;99245.94;4975809;28;20022;-74
2021/06/10 09:40:52;;;;;;;6.10;4.15;;;;;;;33.04;33.31;99252.84;4976110;28;20053;-74
2021/06/10 09:43:19;;;;;;;5.10;4.53;;;;;;;34.61;32.04;99242.34;4976035;28;20411;-74
2021/06/10 09:45:49;;;;;;;5.00;4.60;;;;;;;34.67;32.13;99247.91;4973683;28;20031;-74
2021/06/10 09:48:14;;;;;;;7.03;5.30;;;;;;;33.67;32.24;99239.03;4975593;28;20050;-74
2021/06/10 09:50:43;;;;;;;4.40;4.00;;;;;;;33.66;33.26;99231.13;4975815;28;20106;-74
2021/06/10 09:53:18;;;;;;;5.75;5.00;;;;;;;33.85;32.43;99225.47;4963135;28;20271;-74
2021/06/10 09:56:00;;;;;;;5.00;4.60;;;;;;;33.79;32.47;99230.63;4970502;28;20062;-75
2021/06/10 09:58:45;;;;;;;9.98;5.22;;;;;;;32.58;35.31;99229.88;4973212;28;20022;-75
2021/06/10 10:01:19;;;;;;;4.97;4.47;;;;;;;34.42;31.87;99227.34;4973674;28;20023;-75
2021/06/10 10:03:51;;;;;;;5.38;4.88;;;;;;;33.25;33.08;99228.25;4974395;28;20101;-75
2021/06/10 10:06:23;;;;;;;5.35;4.90;;;;;;;32.99;33.23;99221.09;4975452;28;20106;-75
2021/06/10 10:08:53;;;;;;;6.88;5.55;;;;;;;33.07;32.10;99216.75;4974752;28;20042;-75
2021/06/10 10:11:20;;;;;;;5.85;5.05;;;;;;;32.82;32.41;99216.59;4975258;28;20031;-75
2021/06/10 10:13:48;;;;;;;6.53;5.93;;;;;;;32.38;33.29;99213.97;4974211;28;20480;-75
2021/06/10 10:16:14;;;;;;;6.30;5.60;;;;;;;32.25;34.14;99208.13;4955938;28;20106;-76
2021/06/10 10:18:39;;;;;;;6.70;5.70;;;;;;;33.19;33.17;99197.53;4966964;28;20114;-75
2021/06/10 10:21:06;;;;;;;6.20;4.95;;;;;;;32.75;34.71;99204.81;4955033;28;20043;-76
2021/06/10 10:23:34;;;;;;;6.80;5.78;;;;;;;31.68;35.87;99205.75;4969696;28;20027;-76
2021/06/10 10:26:01;;;;;;;7.20;5.45;;;;;;;34.11;32.53;99200.28;4975127;28;20121;-76
2021/06/10 10:28:29;;;;;;;7.22;5.93;;;;;;;32.36;34.35;99209.72;5011740;23;20575;-72
2021/06/10 10:30:55;;;;;;;8.10;6.30;;;;;;;34.48;30.87;99200.66;4966626;28;20040;-72
2021/06/10 10:33:23;;;;;;;6.35;5.75;;;;;;;34.17;31.65;99199.63;4954791;28;20074;-72
2021/06/10 10:35:50;;;;;;;7.78;5.57;;;;;;;35.73;29.62;99195.47;4955743;28;20027;-73
2021/06/10 10:38:20;;;;;;;8.52;6.03;;;;;;;33.82;30.90;99190.00;4955222;28;20043;-72
2021/06/10 10:41:00;;;;;;;5.55;5.05;;;;;;;35.80;30.19;99182.97;4942812;28;20106;-72
2021/06/10 10:43:26;;;;;;;5.63;5.13;;;;;;;35.72;30.01;99185.72;4934929;29;20035;-72
2021/06/10 10:46:06;;;;;;;6.60;4.88;;;;;;;35.79;28.96;99184.81;4934841;29;20393;-73
2021/06/10 10:48:35;;;;;;;11.95;9.10;;;;;;;35.07;29.71;99184.19;4934007;29;20031;-72
2021/06/10 10:51:00;;;;;;;7.20;5.85;;;;;;;35.02;30.03;99176.63;4935384;29;20559;-72
2021/06/10 10:53:29;;;;;;;8.57;6.05;;;;;;;34.48;30.21;99173.72;4935243;28;20031;-73
2021/06/10 10:56:08;;;;;;;;;;;;;;;33.95;32.66;99171.56;4933591;28;20038;-72
2021/06/10 10:58:35;;;;;;;12.65;10.30;;;;;;;35.03;30.44;99162.13;4934924;28;19947;-72
2021/06/10 11:01:01;;;;;;;9.35;6.20;;;;;;;34.45;31.48;99160.59;4934950;29;20035;-73
2021/06/10 11:03:39;;;;;;;6.72;5.78;;;;;;;34.93;31.22;99161.47;4935044;29;20066;-72
2021/06/10 11:06:25;;;;;;;8.88;6.20;;;;;;;34.82;30.49;99155.66;4934983;29;20039;-72
2021/06/10 11:09:28;;;;;;;7.30;6.60;;;;;;;34.09;31.33;99151.19;4933949;29;20110;-73
2021/06/10 11:11:58;;;;;;;9.20;5.40;;;;;;;35.72;30.75;99151.50;4920960;29;20134;-72
2021/06/10 11:14:35;;;;;;;13.63;9.82;;;;;;;36.08;30.10;99156.31;4934578;29;20032;-73
2021/06/10 11:17:12;;;;;;;8.13;6.40;;;;;;;35.22;30.05;99146.56;4934640;28;20035;-72
2021/06/10 11:19:54;;;;;;;7.38;6.65;;;;;;;35.12;30.13;99154.03;4933564;29;20078;-73
2021/06/10 11:22:28;;;;;;;7.60;6.78;;;;;;;30.37;37.32;99155.00;4934232;29;20146;-72
2021/06/10 11:24:54;;;;;;;8.38;6.53;;;;;;;30.69;37.73;99143.06;4934662;29;20034;-72
2021/06/10 11:27:34;;;;;;;7.45;6.75;;;;;;;28.92;42.26;99150.31;4934426;29;20035;-72
2021/06/10 11:30:20;;;;;;;10.85;7.40;;;;;;;27.16;46.11;99156.25;4933772;29;20086;-72
2021/06/10 11:33:11;;;;;;;7.82;6.43;;;;;;;30.35;39.04;99138.25;4934281;29;20057;-72
2021/06/10 11:35:42;;;;;;;7.05;6.38;;;;;;;30.74;37.45;99135.47;4934461;29;20035;-72
2021/06/10 11:38:27;;;;;;;12.43;8.60;;;;;;;32.76;36.58;99125.97;4934059;29;20055;-73
2021/06/10 11:40:55;;;;;;;7.43;6.75;;;;;;;31.58;37.77;99126.44;4934178;28;20055;-72
2021/06/10 11:43:23;;;;;;;7.50;6.80;;;;;;;33.41;33.67;99126.25;4933188;28;20035;-72
2021/06/10 11:45:59;;;;;;;7.63;6.85;;;;;;;34.09;31.88;99129.66;4934233;29;20102;-72
2021/06/10 11:48:35;;;;;;;31.75;27.75;;;;;;;30.39;37.86;99126.28;4933850;29;20038;-73
2021/06/10 11:51:01;;;;;;;9.00;6.97;;;;;;;30.72;37.00;99132.13;4933989;29;20114;-72
2021/06/10 11:53:28;;;;;;;14.07;8.10;;;;;;;30.75;37.71;99126.44;4933758;29;20038;-72
2021/06/10 11:55:56;;;;;;;6.10;5.60;;;;;;;31.69;36.38;99126.19;4933606;29;20132;-72
2021/06/10 11:58:25;;;;;;;7.00;6.38;;;;;;;31.51;34.93;99111.94;4933913;28;20038;-72
2021/06/10 12:00:51;;;;;;;7.25;6.55;;;;;;;31.14;36.91;99116.41;4933992;28;20405;-71
2021/06/10 12:03:16;;;;;;;10.80;6.60;;;;;;;31.09;38.65;99117.81;4933165;29;20089;-72
2021/06/10 12:05:47;;;;;;;7.90;6.97;;;;;;;30.78;39.03;99115.47;4932805;29;20090;-72
2021/06/10 12:08:15;;;;;;;7.47;6.78;;;;;;;30.45;37.63;99101.59;4929837;28;20031;-72
2021/06/10 12:10:46;;;;;;;8.00;6.47;;;;;;;30.16;38.94;99103.53;4927691;29;20552;-70
2021/06/10 12:13:12;;;;;;;6.63;6.03;;;;;;;30.27;39.64;99103.38;4932507;28;20046;-69
2021/06/10 12:15:41;;;;;;;9.68;8.68;;;;;;;30.06;38.91;99108.88;4932134;28;20030;-70
2021/06/10 12:18:09;;;;;;;7.85;7.07;;;;;;;27.89;40.95;99112.94;4932980;29;20055;-69
2021/06/10 12:20:43;;;;;;;8.75;6.38;;;;;;;27.73;41.35;99107.22;4932866;29;20492;-71
2021/06/10 12:23:17;;;;;;;8.57;6.63;;;;;;;27.22;43.56;99101.66;4932621;29;20087;-71
2021/06/10 12:26:04;;;;;;;7.60;6.90;;;;;;;28.65;39.91;99094.88;4932975;28;20098;-71
2021/06/10 12:28:33;;;;;;;8.05;6.88;;;;;;;27.09;43.76;99092.03;4933274;28;20024;-71
2021/06/10 12:31:19;;;;;;;7.25;6.55;;;;;;;27.89;42.57;99080.97;4932261;29;20107;-71
2021/06/10 12:33:50;;;;;;;7.38;6.47;;;;;;;28.90;38.21;99074.88;4932032;29;20134;-71
2021/06/10 12:36:42;;;;;;;6.47;5.55;;;;;;;29.63;39.70;99075.44;4933511;29;20027;-71
2021/06/10 12:39:08;;;;;;;8.48;5.13;;;;;;;29.81;36.82;99067.56;4933005;29;20036;-72
2021/06/10 12:41:41;;;;;;;5.85;5.35;;;;;;;29.43;38.60;99074.56;4933692;29;20118;-71
2021/06/10 12:44:16;;;;;;;9.60;6.38;;;;;;;27.87;41.32;99074.94;4947273;28;20032;-72
2021/06/10 12:46:59;;;;;;;6.65;5.88;;;;;;;28.28;39.95;99067.88;4933316;29;20027;-71
2021/06/10 12:52:34;;;;;;;6.60;5.85;;;;;;;29.00;38.93;99071.44;4933421;29;20040;-72
2021/06/10 12:55:01;;;;;;;5.95;5.45;;;;;;;29.01;39.36;99070.44;4933175;29;20027;-72
2021/06/10 12:57:33;;;;;;;5.70;5.25;;;;;;;28.48;41.65;99073.31;4932826;29;20130;-72
2021/06/10 13:00:00;;;;;;;6.28;4.72;;;;;;;27.04;44.58;99077.41;4932587;29;20510;-71
2021/06/10 13:02:27;;;;;;;5.47;4.95;;;;;;;27.02;45.27;99079.31;4932965;29;20034;-71
2021/06/10 13:05:12;;;;;;;6.55;4.75;;;;;;;26.10;46.67;99087.41;4933400;29;20393;-72
2021/06/10 13:07:40;;;;;;;9.48;4.72;;;;;;;25.87;49.03;99081.22;4932142;29;20080;-71
2021/06/10 13:10:15;;;;;;;4.63;4.25;;;;;;;25.72;49.48;99077.00;4932650;28;21080;-72
2021/06/10 13:12:42;;;;;;;10.27;5.10;;;;;;;25.39;50.24;99085.72;4932887;29;20054;-71
2021/06/10 13:15:16;;;;;;;7.25;5.72;;;;;;;24.87;52.11;99085.00;4932724;29;20065;-71
2021/06/10 13:18:00;;;;;;;6.72;5.28;;;;;;;24.28;54.00;99076.81;4932970;29;20397;-71
2021/06/10 13:20:40;;;;;;;12.43;5.28;;;;;;;24.47;52.42;99070.28;4931728;29;20043;-71
2021/06/10 13:23:05;;;;;;;6.85;5.40;;;;;;;24.15;53.84;99078.59;4933001;29;20055;-70
2021/06/10 13:25:31;;;;;;;8.77;5.45;;;;;;;24.50;53.08;99070.03;4933329;29;20110;-69
2021/06/10 13:28:09;;;;;;;6.13;5.47;;;;;;;24.54;52.44;99068.88;4932998;29;20027;-69
2021/06/10 13:30:34;;;;;;;4.88;4.13;;;;;;;25.07;50.22;99072.16;4931149;28;20066;-70
2021/06/10 13:33:00;;;;;;;6.47;4.30;;;;;;;25.61;47.94;99069.03;4932384;29;20489;-70
2021/06/10 13:35:25;;;;;;;4.97;4.32;;;;;;;26.14;47.21;99072.06;4934558;28;20032;-70
2021/06/10 13:37:51;;;;;;;5.47;3.88;;;;;;;26.38;43.29;99070.16;4936689;29;20118;-70
2021/06/10 13:40:16;;;;;;;4.00;3.70;;;;;;;25.56;45.73;99079.13;4936006;29;20050;-70
2021/06/10 13:42:50;;;;;;;5.55;4.05;;;;;;;24.97;44.75;99069.28;4935436;29;20031;-70
2021/06/10 13:45:17;;;;;;;5.47;3.42;;;;;;;25.08;43.12;99071.19;4936293;29;20046;-70
2021/06/10 13:47:42;;;;;;;5.30;3.47;;;;;;;25.18;45.70;99066.91;4936116;29;20024;-70
2021/06/10 13:50:09;;;;;;;4.63;3.67;;;;;;;25.21;44.03;99061.38;4935962;28;20042;-69
2021/06/10 13:52:34;;;;;;;3.72;2.88;;;;;;;25.61;43.71;99069.03;4936373;29;20028;-70
2021/06/10 13:54:59;;;;;;;3.45;3.17;;;;;;;25.84;42.21;99081.44;4934761;28;20053;-70
2021/06/10 13:57:25;;;;;;;12.10;3.03;;;;;;;26.25;41.60;99072.06;4935464;29;20516;-70
2021/06/10 13:59:50;;;;;;;4.65;3.35;;;;;;;25.50;43.54;99077.78;4935796;29;20113;-70
2021/06/10 14:02:15;;;;;;;4.50;3.38;;;;;;;25.49;43.80;99081.41;4936213;29;21595;-70
2021/06/10 14:04:41;;;;;;;4.35;3.95;;;;;;;25.16;45.24;99087.41;4934784;29;20042;-70
2021/06/10 14:07:07;;;;;;;5.65;3.40;;;;;;;24.82;44.00;99081.84;4934717;28;20122;-70
2021/06/10 14:09:32;;;;;;;3.42;3.15;;;;;;;24.48;44.92;99090.50;4935500;28;20015;-70
2021/06/10 14:11:58;;;;;;;4.75;3.63;;;;;;;23.99;48.29;99091.22;4935876;29;20044;-70
2021/06/10 14:14:23;;;;;;;7.85;3.85;;;;;;;24.01;49.00;99110.47;4935886;29;20047;-70
2021/06/10 14:16:49;;;;;;;4.00;3.60;;;;;;;24.32;49.43;99103.91;4935182;29;20027;-70
2021/06/10 14:19:18;;;;;;;7.43;3.85;;;;;;;24.92;47.07;99094.44;4935072;28;20046;-70
2021/06/10 14:21:44;;;;;;;;;;;;;;;25.53;45.45;99089.97;4936183;29;20122;-70
2021/06/10 14:24:09;;;;;;;4.20;3.78;;;;;;;26.04;43.06;99081.72;4935620;29;19918;-70
2021/06/10 14:26:34;;;;;;;4.63;3.75;;;;;;;26.99;43.72;99080.44;4935516;29;20034;-71
2021/06/10 14:29:14;;;;;;;3.90;3.50;;;;;;;27.56;40.11;99075.78;4934429;29;20038;-70
2021/06/10 14:34:18;;;;;;;7.43;3.70;;;;;;;27.02;41.27;99063.34;4935445;29;20032;-70
2021/06/10 14:36:45;;;;;;;3.83;3.47;;;;;;;27.63;39.24;99053.00;4935201;29;20114;-70
2021/06/10 14:39:12;;;;;;;4.80;3.67;;;;;;;27.87;40.69;99039.47;4935047;28;20038;-70
2021/06/10 14:41:37;;;;;;;8.13;3.85;;;;;;;27.64;40.33;99050.22;4934545;29;20031;-70
2021/06/10 14:44:03;;;;;;;6.18;4.10;;;;;;;28.29;39.95;99053.59;4935109;29;20047;-70
2021/06/10 14:46:28;;;;;;;4.38;3.70;;;;;;;28.59;39.90;99051.91;4935057;29;21317;-70
2021/06/10 14:48:53;;;;;;;3.83;3.30;;;;;;;28.49;38.88;99051.88;4935427;28;20032;-70
2021/06/10 14:51:19;;;;;;;5.07;4.20;;;;;;;27.74;40.88;99060.97;4934657;29;20027;-70
2021/06/10 14:53:45;;;;;;;3.78;3.47;;;;;;;26.63;42.67;99068.25;4934493;29;20042;-70
2021/06/10 14:56:10;;;;;;;4.88;2.90;;;;;;;25.28;45.50;99099.75;4934914;28;20050;-70
2021/06/10 14:58:35;;;;;;;6.05;3.58;;;;;;;24.30;46.76;99101.38;4935103;28;20043;-70
2021/06/10 15:01:01;;;;;;;6.40;2.80;;;;;;;23.70;47.99;99112.53;4934857;28;20727;-69
2021/06/10 15:03:27;;;;;;;17.70;2.90;;;;;;;22.83;50.74;99116.34;4934748;28;20389;-69
2021/06/10 15:05:52;;;;;;;3.10;2.80;;;;;;;22.28;51.66;99117.06;4934418;29;20118;-69
2021/06/10 15:08:19;;;;;;;3.35;3.08;;;;;;;21.35;56.35;99126.97;4934606;28;20042;-70
2021/06/10 15:10:44;;;;;;;6.80;3.10;;;;;;;20.98;58.23;99110.50;4933455;29;20039;-69
2021/06/10 15:13:09;;;;;;;3.90;3.50;;;;;;;20.38;63.21;99118.13;4932152;29;20094;-69
2021/06/10 15:15:35;;;;;;;20.25;5.75;;;;;;;18.87;76.57;99110.69;4932945;29;20493;-70
2021/06/10 15:18:01;;;;;;;19.85;6.13;;;;;;;17.83;80.33;99092.50;4932553;28;20023;-69
2021/06/10 15:20:28;;;;;;;14.07;7.18;;;;;;;17.66;83.49;99095.81;4933027;28;20039;-72
2021/06/10 15:22:53;;;;;;;14.63;6.68;;;;;;;17.67;83.38;99112.41;4933478;28;20109;-72
2021/06/10 15:25:19;;;;;;;10.98;7.13;;;;;;;17.77;86.16;99128.63;4933748;29;20082;-72
2021/06/10 15:27:44;;;;;;;13.40;7.85;;;;;;;17.84;88.33;99135.31;4934194;29;20474;-70
2021/06/10 15:30:10;;;;;;;15.77;7.93;;;;;;;18.15;90.75;99135.72;4934015;28;20117;-70
2021/06/10 15:32:35;;;;;;;13.93;7.65;;;;;;;18.30;88.41;99122.88;4934297;29;20032;-70
2021/06/10 15:35:01;;;;;;;14.82;8.18;;;;;;;18.28;91.62;99130.81;4932096;29;20142;-71
2021/06/10 15:37:26;;;;;;;15.70;7.35;;;;;;;18.35;91.13;99131.38;4934236;29;20093;-71
2021/06/10 15:39:52;;;;;;;9.95;6.35;;;;;;;18.57;86.24;99134.78;4934391;29;20503;-71
2021/06/10 15:42:17;;;;;;;10.25;5.53;;;;;;;18.64;84.27;99133.56;4934117;29;20027;-71
2021/06/10 15:44:43;;;;;;;7.00;5.65;;;;;;;18.93;87.13;99139.28;4934394;28;20034;-70
2021/06/10 15:47:08;;;;;;;8.05;5.57;;;;;;;18.96;83.23;99131.28;4933966;29;20058;-70
2021/06/10 15:49:34;;;;;;;10.05;5.45;;;;;;;18.65;86.44;99140.50;4934151;29;20033;-70
2021/06/10 15:52:00;;;;;;;7.88;5.75;;;;;;;18.31;86.86;99124.56;4934134;29;20038;-69
2021/06/10 15:54:25;;;;;;;7.28;5.93;;;;;;;18.35;90.87;99118.25;4934165;28;20409;-70
2021/06/10 15:56:51;;;;;;;8.98;6.15;;;;;;;18.31;87.15;99111.44;4933913;28;20034;-70
2021/06/10 15:59:16;;;;;;;12.07;6.70;;;;;;;18.50;89.31;99104.47;4933610;29;20086;-70